sensor_id;sensor_type;location;lat;lon;timestamp;pressure;altitude;pressure_sealevel;temperature;humidity
60725;BME280;59881;36.722;-4.462;2022-07-22T00:01:33;100909.00;;;24.19;94.14
60725;BME280;59881;36.722;-4.462;2022-07-22T00:03:59;100438.75;;;21.34;93.83
60725;BME280;59881;36.722;-4.462;2022-07-22T00:06:26;100321.03;;;20.63;93.45
60725;BME280;59881;36.722;-4.462;2022-07-22T00:08:51;100311.06;;;20.57;93.31
60725;BME280;59881;36.722;-4.462;2022-07-22T00:11:17;101059.03;;;25.14;93.69
60725;BME280;59881;36.722;-4.462;2022-07-22T00:13:43;101025.63;;;24.94;93.46
60725;BME280;59881;36.722;-4.462;2022-07-22T00:16:10;100955.31;;;24.44;93.22
60725;BME280;59881;36.722;-4.462;2022-07-22T00:18:36;100958.66;;;24.16;93.53
60725;BME280;59881;36.722;-4.462;2022-07-22T00:21:02;101121.09;;;22.35;93.35
60725;BME280;59881;36.722;-4.462;2022-07-22T00:23:28;100755.22;;;23.03;93.41
60725;BME280;59881;36.722;-4.462;2022-07-22T00:25:53;101044.50;;;24.79;94.21
60725;BME280;59881;36.722;-4.462;2022-07-22T00:28:19;100304.53;;;20.20;93.96
60725;BME280;59881;36.722;-4.462;2022-07-22T00:30:45;99710.75;;;15.10;93.75
60725;BME280;59881;36.722;-4.462;2022-07-22T00:33:10;100815.00;;;23.05;94.25
60725;BME280;59881;36.722;-4.462;2022-07-22T00:35:36;101046.09;;;24.58;94.34
60725;BME280;59881;36.722;-4.462;2022-07-22T00:38:01;100343.28;;;20.24;94.15
60725;BME280;59881;36.722;-4.462;2022-07-22T00:40:28;101100.22;;;23.88;94.68
60725;BME280;59881;36.722;-4.462;2022-07-22T00:42:54;100336.47;;;20.13;94.11
60725;BME280;59881;36.722;-4.462;2022-07-22T00:45:19;100144.56;;;18.97;94.27
60725;BME280;59881;36.722;-4.462;2022-07-22T00:47:45;100889.72;;;23.48;94.61
60725;BME280;59881;36.722;-4.462;2022-07-22T00:50:11;101106.50;;;24.03;94.82
60725;BME280;59881;36.722;-4.462;2022-07-22T00:52:37;100408.38;;;20.56;94.71
60725;BME280;59881;36.722;-4.462;2022-07-22T00:55:04;100949.16;;;23.76;94.88
60725;BME280;59881;36.722;-4.462;2022-07-22T00:57:30;100289.66;;;19.70;94.31
60725;BME280;59881;36.722;-4.462;2022-07-22T00:59:56;101028.19;;;24.28;95.05
60725;BME280;59881;36.722;-4.462;2022-07-22T01:02:22;100988.59;;;23.84;94.91
60725;BME280;59881;36.722;-4.462;2022-07-22T01:04:47;100616.16;;;21.60;94.85
60725;BME280;59881;36.722;-4.462;2022-07-22T01:07:13;100333.53;;;20.00;94.86
60725;BME280;59881;36.722;-4.462;2022-07-22T01:09:43;100419.06;;;20.56;95.22
60725;BME280;59881;36.722;-4.462;2022-07-22T01:12:09;100995.69;;;24.14;95.65
60725;BME280;59881;36.722;-4.462;2022-07-22T01:14:34;101192.00;;;24.39;95.76
60725;BME280;59881;36.722;-4.462;2022-07-22T01:17:00;100954.94;;;23.88;95.22
60725;BME280;59881;36.722;-4.462;2022-07-22T01:19:25;100296.09;;;20.00;94.66
60725;BME280;59881;36.722;-4.462;2022-07-22T01:21:51;100921.34;;;23.84;95.08
60725;BME280;59881;36.722;-4.462;2022-07-22T01:24:17;100829.31;;;23.35;94.89
60725;BME280;59881;36.722;-4.462;2022-07-22T01:26:42;100200.84;;;19.51;94.30
60725;BME280;59881;36.722;-4.462;2022-07-22T01:29:08;100323.53;;;20.33;94.43
60725;BME280;59881;36.722;-4.462;2022-07-22T01:31:33;101013.75;;;24.58;95.34
60725;BME280;59881;36.722;-4.462;2022-07-22T01:33:59;100971.09;;;24.32;94.95
60725;BME280;59881;36.722;-4.462;2022-07-22T01:36:25;101019.31;;;24.57;94.91
60725;BME280;59881;36.722;-4.462;2022-07-22T01:38:50;101054.19;;;23.83;94.31
60725;BME280;59881;36.722;-4.462;2022-07-22T01:41:16;100193.31;;;19.55;94.07
60725;BME280;59881;36.722;-4.462;2022-07-22T01:43:42;100271.66;;;20.03;94.07
60725;BME280;59881;36.722;-4.462;2022-07-22T01:46:07;101012.47;;;24.54;94.17
60725;BME280;59881;36.722;-4.462;2022-07-22T01:48:33;101040.44;;;24.53;94.32
60725;BME280;59881;36.722;-4.462;2022-07-22T01:50:59;101006.13;;;24.47;93.99
60725;BME280;59881;36.722;-4.462;2022-07-22T01:53:25;100283.19;;;20.03;93.75
60725;BME280;59881;36.722;-4.462;2022-07-22T01:55:50;100272.84;;;20.00;93.46
60725;BME280;59881;36.722;-4.462;2022-07-22T01:58:16;100240.22;;;19.74;93.57
60725;BME280;59881;36.722;-4.462;2022-07-22T02:00:42;100819.97;;;23.31;94.34
60725;BME280;59881;36.722;-4.462;2022-07-22T02:03:08;100989.78;;;24.34;94.78
60725;BME280;59881;36.722;-4.462;2022-07-22T02:05:36;100988.66;;;24.28;94.81
60725;BME280;59881;36.722;-4.462;2022-07-22T02:08:05;100973.25;;;24.22;94.81
60725;BME280;59881;36.722;-4.462;2022-07-22T02:10:30;100231.53;;;19.63;93.93
60725;BME280;59881;36.722;-4.462;2022-07-22T02:12:57;100405.84;;;20.54;94.48
60725;BME280;59881;36.722;-4.462;2022-07-22T02:15:23;100977.25;;;24.11;95.12
60725;BME280;59881;36.722;-4.462;2022-07-22T02:17:49;100258.25;;;19.63;94.38
60725;BME280;59881;36.722;-4.462;2022-07-22T02:20:14;100279.78;;;19.78;94.55
60725;BME280;59881;36.722;-4.462;2022-07-22T02:22:40;100834.38;;;23.16;94.84
60725;BME280;59881;36.722;-4.462;2022-07-22T02:25:06;100928.88;;;23.65;94.86
60725;BME280;59881;36.722;-4.462;2022-07-22T02:27:31;100493.84;;;20.49;93.73
60725;BME280;59881;36.722;-4.462;2022-07-22T02:29:57;100797.53;;;22.32;94.94
60725;BME280;59881;36.722;-4.462;2022-07-22T02:32:23;100800.88;;;22.80;95.35
60725;BME280;59881;36.722;-4.462;2022-07-22T02:34:48;100225.44;;;19.30;95.21
60725;BME280;59881;36.722;-4.462;2022-07-22T02:37:14;100134.25;;;18.69;95.54
60725;BME280;59881;36.722;-4.462;2022-07-22T02:39:41;100944.50;;;23.01;96.14
60725;BME280;59881;36.722;-4.462;2022-07-22T02:42:06;100248.63;;;19.38;95.58
60725;BME280;59881;36.722;-4.462;2022-07-22T02:44:32;100463.25;;;20.60;96.27
60725;BME280;59881;36.722;-4.462;2022-07-22T02:46:57;100220.44;;;19.19;96.44
60725;BME280;59881;36.722;-4.462;2022-07-22T02:49:23;100967.44;;;23.81;97.18
60725;BME280;59881;36.722;-4.462;2022-07-22T02:51:48;100431.84;;;20.37;96.65
60725;BME280;59881;36.722;-4.462;2022-07-22T02:54:14;100829.44;;;23.04;97.21
60725;BME280;59881;36.722;-4.462;2022-07-22T02:56:39;100580.75;;;21.42;97.13
60725;BME280;59881;36.722;-4.462;2022-07-22T02:59:05;100418.16;;;18.50;96.75
60725;BME280;59881;36.722;-4.462;2022-07-22T03:01:30;100930.63;;;23.58;97.63
60725;BME280;59881;36.722;-4.462;2022-07-22T03:03:56;100910.38;;;23.47;98.01
60725;BME280;59881;36.722;-4.462;2022-07-22T03:06:21;100814.38;;;22.95;98.24
60725;BME280;59881;36.722;-4.462;2022-07-22T03:08:47;100905.41;;;23.59;98.40
60725;BME280;59881;36.722;-4.462;2022-07-22T03:11:13;100903.25;;;23.54;98.21
60725;BME280;59881;36.722;-4.462;2022-07-22T03:13:38;100328.66;;;20.03;97.86
60725;BME280;59881;36.722;-4.462;2022-07-22T03:16:04;100876.59;;;23.30;98.10
60725;BME280;59881;36.722;-4.462;2022-07-22T03:18:29;100378.72;;;20.26;97.75
60725;BME280;59881;36.722;-4.462;2022-07-22T03:20:55;100403.41;;;20.36;98.18
60725;BME280;59881;36.722;-4.462;2022-07-22T03:23:20;100764.50;;;22.55;98.70
60725;BME280;59881;36.722;-4.462;2022-07-22T03:25:46;100915.56;;;23.49;98.79
60725;BME280;59881;36.722;-4.462;2022-07-22T03:28:12;100235.44;;;19.36;99.22
60725;BME280;59881;36.722;-4.462;2022-07-22T03:30:38;100488.69;;;20.95;99.44
60725;BME280;59881;36.722;-4.462;2022-07-22T03:33:03;100670.34;;;22.10;100.00
60725;BME280;59881;36.722;-4.462;2022-07-22T03:35:29;100778.38;;;22.81;100.00
60725;BME280;59881;36.722;-4.462;2022-07-22T03:37:54;100215.09;;;19.35;100.00
60725;BME280;59881;36.722;-4.462;2022-07-22T03:40:20;100660.81;;;22.07;100.00
60725;BME280;59881;36.722;-4.462;2022-07-22T03:42:45;100614.22;;;21.77;100.00
60725;BME280;59881;36.722;-4.462;2022-07-22T03:45:11;100903.09;;;23.56;100.00
60725;BME280;59881;36.722;-4.462;2022-07-22T03:47:36;100906.97;;;23.53;100.00
60725;BME280;59881;36.722;-4.462;2022-07-22T03:50:02;100723.03;;;22.34;100.00
60725;BME280;59881;36.722;-4.462;2022-07-22T03:52:29;100444.94;;;20.24;100.00
60725;BME280;59881;36.722;-4.462;2022-07-22T03:54:55;100708.38;;;19.35;100.00
60725;BME280;59881;36.722;-4.462;2022-07-22T03:57:20;100614.09;;;21.70;100.00
60725;BME280;59881;36.722;-4.462;2022-07-22T03:59:46;100900.84;;;23.45;100.00
60725;BME280;59881;36.722;-4.462;2022-07-22T04:02:11;100328.34;;;19.90;100.00
60725;BME280;59881;36.722;-4.462;2022-07-22T04:04:37;100763.78;;;22.61;100.00
60725;BME280;59881;36.722;-4.462;2022-07-22T04:07:03;100051.09;;;18.16;100.00
60725;BME280;59881;36.722;-4.462;2022-07-22T04:09:29;100188.88;;;16.61;100.00
60725;BME280;59881;36.722;-4.462;2022-07-22T04:11:54;100329.00;;;19.92;100.00
60725;BME280;59881;36.722;-4.462;2022-07-22T04:14:20;100260.81;;;19.49;100.00
60725;BME280;59881;36.722;-4.462;2022-07-22T04:16:46;99891.53;;;17.23;100.00
60725;BME280;59881;36.722;-4.462;2022-07-22T04:19:12;100900.19;;;23.43;100.00
60725;BME280;59881;36.722;-4.462;2022-07-22T04:21:38;100360.88;;;20.10;100.00
60725;BME280;59881;36.722;-4.462;2022-07-22T04:24:04;100734.88;;;22.40;100.00
60725;BME280;59881;36.722;-4.462;2022-07-22T04:26:29;100782.81;;;22.74;100.00
60725;BME280;59881;36.722;-4.462;2022-07-22T04:28:55;100777.00;;;22.62;100.00
60725;BME280;59881;36.722;-4.462;2022-07-22T04:31:21;100232.16;;;19.26;100.00
60725;BME280;59881;36.722;-4.462;2022-07-22T04:33:46;100919.47;;;23.23;100.00
60725;BME280;59881;36.722;-4.462;2022-07-22T04:36:12;100940.91;;;22.77;100.00
60725;BME280;59881;36.722;-4.462;2022-07-22T04:38:37;100878.34;;;23.23;100.00
60725;BME280;59881;36.722;-4.462;2022-07-22T04:41:03;100899.88;;;23.38;100.00
60725;BME280;59881;36.722;-4.462;2022-07-22T04:43:29;100735.31;;;22.28;100.00
60725;BME280;59881;36.722;-4.462;2022-07-22T04:45:55;100763.19;;;22.50;100.00
60725;BME280;59881;36.722;-4.462;2022-07-22T04:48:21;100905.25;;;23.38;100.00
60725;BME280;59881;36.722;-4.462;2022-07-22T04:50:46;100329.88;;;19.84;99.72
60725;BME280;59881;36.722;-4.462;2022-07-22T04:53:12;100922.78;;;22.40;99.54
60725;BME280;59881;36.722;-4.462;2022-07-22T04:55:38;100913.69;;;23.34;99.83
60725;BME280;59881;36.722;-4.462;2022-07-22T04:58:03;99885.22;;;15.97;98.64
60725;BME280;59881;36.722;-4.462;2022-07-22T05:00:29;100258.00;;;19.34;99.11
60725;BME280;59881;36.722;-4.462;2022-07-22T05:02:54;100155.25;;;18.64;98.38
60725;BME280;59881;36.722;-4.462;2022-07-22T05:05:21;100806.41;;;22.56;98.95
60725;BME280;59881;36.722;-4.462;2022-07-22T05:07:46;100860.94;;;22.87;98.95
60725;BME280;59881;36.722;-4.462;2022-07-22T05:10:12;101282.03;;;23.02;98.80
60725;BME280;59881;36.722;-4.462;2022-07-22T05:12:38;100990.31;;;23.30;98.94
60725;BME280;59881;36.722;-4.462;2022-07-22T05:15:04;100252.50;;;19.19;97.86
60725;BME280;59881;36.722;-4.462;2022-07-22T05:17:29;100885.53;;;22.99;98.02
60725;BME280;59881;36.722;-4.462;2022-07-22T05:19:55;100914.78;;;23.25;97.49
60725;BME280;59881;36.722;-4.462;2022-07-22T05:22:21;100798.72;;;22.52;97.08
60725;BME280;59881;36.722;-4.462;2022-07-22T05:24:46;100960.59;;;23.32;96.67
60725;BME280;59881;36.722;-4.462;2022-07-22T05:27:12;100929.31;;;23.31;96.50
60725;BME280;59881;36.722;-4.462;2022-07-22T05:29:37;100866.59;;;22.92;95.87
60725;BME280;59881;36.722;-4.462;2022-07-22T05:32:03;100706.47;;;21.91;95.53
60725;BME280;59881;36.722;-4.462;2022-07-22T05:34:29;100280.84;;;19.44;94.90
60725;BME280;59881;36.722;-4.462;2022-07-22T05:36:54;100942.50;;;23.64;94.97
60725;BME280;59881;36.722;-4.462;2022-07-22T05:39:20;100598.88;;;21.63;93.64
60725;BME280;59881;36.722;-4.462;2022-07-22T05:41:45;100912.19;;;23.70;93.12
60725;BME280;59881;36.722;-4.462;2022-07-22T05:44:11;100953.47;;;24.15;91.80
60725;BME280;59881;36.722;-4.462;2022-07-22T05:46:37;100280.75;;;20.25;89.83
60725;BME280;59881;36.722;-4.462;2022-07-22T05:49:02;100243.97;;;20.27;87.54
60725;BME280;59881;36.722;-4.462;2022-07-22T05:51:28;100332.78;;;21.08;85.38
60725;BME280;59881;36.722;-4.462;2022-07-22T05:53:54;100150.06;;;20.22;83.23
60725;BME280;59881;36.722;-4.462;2022-07-22T05:56:19;100806.78;;;24.55;80.99
60725;BME280;59881;36.722;-4.462;2022-07-22T05:58:45;100939.47;;;25.65;78.12
60725;BME280;59881;36.722;-4.462;2022-07-22T06:01:10;101094.19;;;25.94;75.98
60725;BME280;59881;36.722;-4.462;2022-07-22T06:03:36;100725.22;;;24.90;74.17
60725;BME280;59881;36.722;-4.462;2022-07-22T06:06:02;100271.47;;;22.47;71.79
60725;BME280;59881;36.722;-4.462;2022-07-22T06:08:30;100294.16;;;23.02;69.90
60725;BME280;59881;36.722;-4.462;2022-07-22T06:10:57;100426.41;;;24.19;67.96
60725;BME280;59881;36.722;-4.462;2022-07-22T06:13:24;100319.28;;;24.01;65.81
60725;BME280;59881;36.722;-4.462;2022-07-22T06:15:50;100353.91;;;24.10;63.61
60725;BME280;59881;36.722;-4.462;2022-07-22T06:18:15;100931.22;;;28.58;62.18
60725;BME280;59881;36.722;-4.462;2022-07-22T06:20:41;100321.53;;;25.27;60.10
60725;BME280;59881;36.722;-4.462;2022-07-22T06:23:06;100197.56;;;24.87;58.40
60725;BME280;59881;36.722;-4.462;2022-07-22T06:25:32;100945.75;;;29.72;57.48
60725;BME280;59881;36.722;-4.462;2022-07-22T06:27:57;100027.47;;;24.36;56.02
60725;BME280;59881;36.722;-4.462;2022-07-22T06:30:23;100372.66;;;26.78;54.34
60725;BME280;59881;36.722;-4.462;2022-07-22T06:32:48;100526.50;;;28.20;53.28
60725;BME280;59881;36.722;-4.462;2022-07-22T06:35:14;100452.94;;;28.23;51.89
60725;BME280;59881;36.722;-4.462;2022-07-22T06:37:40;100408.72;;;28.48;49.94
60725;BME280;59881;36.722;-4.462;2022-07-22T06:40:06;100357.56;;;28.70;47.93
60725;BME280;59881;36.722;-4.462;2022-07-22T06:42:31;100759.94;;;31.60;45.88
60725;BME280;59881;36.722;-4.462;2022-07-22T06:44:57;100457.44;;;29.87;45.52
60725;BME280;59881;36.722;-4.462;2022-07-22T06:47:22;100828.44;;;32.32;46.28
60725;BME280;59881;36.722;-4.462;2022-07-22T06:49:48;100503.38;;;30.48;44.67
60725;BME280;59881;36.722;-4.462;2022-07-22T06:52:14;100443.50;;;30.43;45.31
60725;BME280;59881;36.722;-4.462;2022-07-22T06:54:39;100340.38;;;30.12;45.87
60725;BME280;59881;36.722;-4.462;2022-07-22T06:57:05;100836.19;;;33.66;47.13
60725;BME280;59881;36.722;-4.462;2022-07-22T06:59:30;100890.66;;;34.38;46.48
60725;BME280;59881;36.722;-4.462;2022-07-22T07:01:56;100877.53;;;34.62;45.80
60725;BME280;59881;36.722;-4.462;2022-07-22T07:04:22;100819.88;;;34.42;45.21
60725;BME280;59881;36.722;-4.462;2022-07-22T07:06:47;100671.72;;;31.61;43.85
60725;BME280;59881;36.722;-4.462;2022-07-22T07:09:13;100086.50;;;29.86;43.75
60725;BME280;59881;36.722;-4.462;2022-07-22T07:11:39;100980.16;;;35.41;43.89
60725;BME280;59881;36.722;-4.462;2022-07-22T07:14:04;100907.66;;;35.17;43.74
60725;BME280;59881;36.722;-4.462;2022-07-22T07:16:30;100823.09;;;35.20;42.29
60725;BME280;59881;36.722;-4.462;2022-07-22T07:18:55;100899.69;;;36.58;40.03
60725;BME280;59881;36.722;-4.462;2022-07-22T07:21:21;100867.06;;;36.77;39.46
60725;BME280;59881;36.722;-4.462;2022-07-22T07:23:47;100395.44;;;33.87;39.50
60725;BME280;59881;36.722;-4.462;2022-07-22T07:26:12;100950.59;;;37.43;38.92
60725;BME280;59881;36.722;-4.462;2022-07-22T07:28:38;100913.78;;;37.03;38.25
60725;BME280;59881;36.722;-4.462;2022-07-22T07:31:04;100863.19;;;37.65;37.87
60725;BME280;59881;36.722;-4.462;2022-07-22T07:33:30;100936.59;;;38.45;36.90
60725;BME280;59881;36.722;-4.462;2022-07-22T07:35:55;100932.81;;;38.36;36.16
60725;BME280;59881;36.722;-4.462;2022-07-22T07:38:21;101025.06;;;39.38;35.07
60725;BME280;59881;36.722;-4.462;2022-07-22T07:40:47;100463.06;;;36.80;34.66
60725;BME280;59881;36.722;-4.462;2022-07-22T07:43:12;100493.13;;;37.45;33.28
60725;BME280;59881;36.722;-4.462;2022-07-22T07:45:38;100494.91;;;38.00;32.69
60725;BME280;59881;36.722;-4.462;2022-07-22T07:48:04;100587.47;;;38.68;31.93
60725;BME280;59881;36.722;-4.462;2022-07-22T07:50:29;100494.03;;;37.75;32.80
60725;BME280;59881;36.722;-4.462;2022-07-22T07:52:56;100976.47;;;40.92;32.32
60725;BME280;59881;36.722;-4.462;2022-07-22T07:55:21;100891.09;;;40.77;32.31
60725;BME280;59881;36.722;-4.462;2022-07-22T07:57:48;100968.66;;;42.11;31.42
60725;BME280;59881;36.722;-4.462;2022-07-22T08:00:15;100972.81;;;42.36;30.43
60725;BME280;59881;36.722;-4.462;2022-07-22T08:02:41;100583.91;;;39.35;30.73
60725;BME280;59881;36.722;-4.462;2022-07-22T08:05:08;99966.41;;;35.63;32.02
60725;BME280;59881;36.722;-4.462;2022-07-22T08:07:34;100988.88;;;40.32;32.86
60725;BME280;59881;36.722;-4.462;2022-07-22T08:10:00;100834.63;;;38.32;34.60
60725;BME280;59881;36.722;-4.462;2022-07-22T08:12:25;100538.66;;;36.11;35.20
60725;BME280;59881;36.722;-4.462;2022-07-22T08:14:51;100973.91;;;38.12;36.24
60725;BME280;59881;36.722;-4.462;2022-07-22T08:17:17;100772.09;;;37.07;36.38
60725;BME280;59881;36.722;-4.462;2022-07-22T08:19:42;100469.59;;;35.37;36.17
60725;BME280;59881;36.722;-4.462;2022-07-22T08:22:08;100973.38;;;38.70;35.52
60725;BME280;59881;36.722;-4.462;2022-07-22T08:24:33;100404.94;;;35.11;35.78
60725;BME280;59881;36.722;-4.462;2022-07-22T08:26:59;100562.28;;;35.92;35.70
60725;BME280;59881;36.722;-4.462;2022-07-22T08:29:25;100503.34;;;35.89;35.47
60725;BME280;59881;36.722;-4.462;2022-07-22T08:31:50;100951.47;;;39.33;34.88
60725;BME280;59881;36.722;-4.462;2022-07-22T08:34:16;100823.78;;;39.19;34.49
60725;BME280;59881;36.722;-4.462;2022-07-22T08:36:42;100905.19;;;40.13;34.40
60725;BME280;59881;36.722;-4.462;2022-07-22T08:39:08;100990.38;;;40.20;35.01
60725;BME280;59881;36.722;-4.462;2022-07-22T08:41:36;100990.78;;;39.84;35.31
60725;BME280;59881;36.722;-4.462;2022-07-22T08:44:03;100981.50;;;39.99;34.88
60725;BME280;59881;36.722;-4.462;2022-07-22T08:46:29;101001.81;;;40.08;34.95
60725;BME280;59881;36.722;-4.462;2022-07-22T08:48:55;100524.69;;;37.53;34.42
60725;BME280;59881;36.722;-4.462;2022-07-22T08:51:20;100477.56;;;36.86;34.86
60725;BME280;59881;36.722;-4.462;2022-07-22T08:53:46;100981.84;;;39.92;35.24
60725;BME280;59881;36.722;-4.462;2022-07-22T08:56:13;100969.28;;;40.05;34.81
60725;BME280;59881;36.722;-4.462;2022-07-22T08:58:39;99782.75;;;32.69;33.82
60725;BME280;59881;36.722;-4.462;2022-07-22T09:01:11;100998.63;;;41.25;32.94
60725;BME280;59881;36.722;-4.462;2022-07-22T09:03:57;101031.66;;;41.35;32.75
60725;BME280;59881;36.722;-4.462;2022-07-22T09:06:25;100967.66;;;41.74;32.56
60725;BME280;59881;36.722;-4.462;2022-07-22T09:11:24;100880.59;;;42.00;30.60
60725;BME280;59881;36.722;-4.462;2022-07-22T09:13:51;100932.22;;;43.58;28.61
60725;BME280;59881;36.722;-4.462;2022-07-22T09:16:37;100975.88;;;44.64;27.75
60725;BME280;59881;36.722;-4.462;2022-07-22T09:19:03;100874.66;;;44.04;26.93
60725;BME280;59881;36.722;-4.462;2022-07-22T09:21:30;100957.78;;;45.57;25.95
60725;BME280;59881;36.722;-4.462;2022-07-22T09:23:55;100928.06;;;46.17;24.95
60725;BME280;59881;36.722;-4.462;2022-07-22T09:26:39;100885.78;;;46.36;24.52
60725;BME280;59881;36.722;-4.462;2022-07-22T09:29:06;100893.88;;;47.04;23.50
60725;BME280;59881;36.722;-4.462;2022-07-22T09:31:33;100555.03;;;45.42;23.06
60725;BME280;59881;36.722;-4.462;2022-07-22T09:34:00;100974.47;;;48.38;22.13
60725;BME280;59881;36.722;-4.462;2022-07-22T09:36:26;100981.47;;;48.44;21.87
60725;BME280;59881;36.722;-4.462;2022-07-22T09:38:52;100909.03;;;47.61;21.91
60725;BME280;59881;36.722;-4.462;2022-07-22T09:41:19;101038.38;;;47.90;21.33
60725;BME280;59881;36.722;-4.462;2022-07-22T09:43:44;100551.41;;;45.96;21.61
60725;BME280;59881;36.722;-4.462;2022-07-22T09:46:10;100529.41;;;46.03;21.06
60725;BME280;59881;36.722;-4.462;2022-07-22T09:48:37;100948.94;;;48.64;20.73
60725;BME280;59881;36.722;-4.462;2022-07-22T09:51:03;101044.22;;;48.99;20.72
60725;BME280;59881;36.722;-4.462;2022-07-22T09:53:31;100981.81;;;49.11;19.94
60725;BME280;59881;36.722;-4.462;2022-07-22T09:56:02;100900.41;;;47.91;21.15
60725;BME280;59881;36.722;-4.462;2022-07-22T09:58:28;100993.09;;;48.34;21.77
60725;BME280;59881;36.722;-4.462;2022-07-22T10:00:58;100536.97;;;45.69;21.47
60725;BME280;59881;36.722;-4.462;2022-07-22T10:03:27;100617.28;;;46.50;21.12
60725;BME280;59881;36.722;-4.462;2022-07-22T10:05:54;100527.16;;;45.84;21.02
60725;BME280;59881;36.722;-4.462;2022-07-22T10:08:21;101017.53;;;48.61;20.89
60725;BME280;59881;36.722;-4.462;2022-07-22T10:10:47;100542.03;;;45.34;21.20
60725;BME280;59881;36.722;-4.462;2022-07-22T10:13:13;100915.25;;;47.46;21.69
60725;BME280;59881;36.722;-4.462;2022-07-22T10:15:39;100680.28;;;45.75;22.44
60725;BME280;59881;36.722;-4.462;2022-07-22T10:18:13;100277.75;;;41.89;23.06
60725;BME280;59881;36.722;-4.462;2022-07-22T10:20:39;101117.56;;;46.89;23.27
60725;BME280;59881;36.722;-4.462;2022-07-22T10:23:07;100986.84;;;46.16;23.98
60725;BME280;59881;36.722;-4.462;2022-07-22T10:25:51;100948.31;;;45.97;24.22
60725;BME280;59881;36.722;-4.462;2022-07-22T10:28:36;101035.06;;;46.67;23.58
60725;BME280;59881;36.722;-4.462;2022-07-22T10:33:40;100535.47;;;43.46;24.95
60725;BME280;59881;36.722;-4.462;2022-07-22T10:36:05;101001.78;;;46.41;24.39
60725;BME280;59881;36.722;-4.462;2022-07-22T10:38:32;100515.59;;;43.27;24.12
60725;BME280;59881;36.722;-4.462;2022-07-22T10:41:03;100779.28;;;44.52;24.48
60725;BME280;59881;36.722;-4.462;2022-07-22T10:43:51;100602.97;;;43.24;24.88
60725;BME280;59881;36.722;-4.462;2022-07-22T10:46:16;101023.09;;;45.42;24.96
60725;BME280;59881;36.722;-4.462;2022-07-22T10:53:56;100706.25;;;33.75;35.79
60725;BME280;59881;36.722;-4.462;2022-07-22T10:56:31;101033.56;;;35.71;39.49
60725;BME280;59881;36.722;-4.462;2022-07-22T10:59:15;100946.50;;;33.82;42.49
60725;BME280;59881;36.722;-4.462;2022-07-22T11:01:46;101031.94;;;33.77;44.18
60725;BME280;59881;36.722;-4.462;2022-07-22T11:04:22;101033.19;;;33.40;45.26
60725;BME280;59881;36.722;-4.462;2022-07-22T11:06:51;100760.53;;;31.50;46.27
60725;BME280;59881;36.722;-4.462;2022-07-22T11:09:19;100913.22;;;31.95;46.95
60725;BME280;59881;36.722;-4.462;2022-07-22T11:11:49;100296.53;;;28.00;47.92
60725;BME280;59881;36.722;-4.462;2022-07-22T11:14:35;101037.03;;;32.47;48.39
60725;BME280;59881;36.722;-4.462;2022-07-22T11:17:07;100424.50;;;28.51;48.42
60725;BME280;59881;36.722;-4.462;2022-07-22T11:19:34;101038.94;;;32.23;48.44
60725;BME280;59881;36.722;-4.462;2022-07-22T11:22:04;100854.56;;;30.99;48.30
60725;BME280;59881;36.722;-4.462;2022-07-22T11:24:31;101036.53;;;31.91;49.71
60725;BME280;59881;36.722;-4.462;2022-07-22T11:26:58;101172.88;;;31.66;50.13
60725;BME280;59881;36.722;-4.462;2022-07-22T11:29:35;101034.25;;;31.34;50.53
60725;BME280;59881;36.722;-4.462;2022-07-22T11:32:03;100924.69;;;30.48;51.20
60725;BME280;59881;36.722;-4.462;2022-07-22T11:34:30;100531.94;;;27.95;52.45
60725;BME280;59881;36.722;-4.462;2022-07-22T11:36:56;101113.19;;;30.79;52.18
60725;BME280;59881;36.722;-4.462;2022-07-22T11:39:29;101155.00;;;31.21;51.85
60725;BME280;59881;36.722;-4.462;2022-07-22T11:41:57;101097.66;;;30.86;52.27
60725;BME280;59881;36.722;-4.462;2022-07-22T11:44:25;100546.47;;;28.01;51.92
60725;BME280;59881;36.722;-4.462;2022-07-22T11:46:52;101016.66;;;31.06;51.68
60725;BME280;59881;36.722;-4.462;2022-07-22T11:49:21;100365.75;;;27.14;51.54
60725;BME280;59881;36.722;-4.462;2022-07-22T11:51:47;101027.81;;;31.28;51.33
60725;BME280;59881;36.722;-4.462;2022-07-22T11:54:13;101154.31;;;31.26;51.47
60725;BME280;59881;36.722;-4.462;2022-07-22T11:56:39;101009.31;;;31.07;51.07
60725;BME280;59881;36.722;-4.462;2022-07-22T11:59:06;100525.50;;;27.90;51.86
60725;BME280;59881;36.722;-4.462;2022-07-22T12:01:36;100967.97;;;30.06;51.84
60725;BME280;59881;36.722;-4.462;2022-07-22T12:06:28;100395.53;;;27.08;51.40
60725;BME280;59881;36.722;-4.462;2022-07-22T12:09:05;100335.56;;;26.54;51.67
60725;BME280;59881;36.722;-4.462;2022-07-22T12:11:32;100463.00;;;27.34;52.17
60725;BME280;59881;36.722;-4.462;2022-07-22T12:14:06;100999.22;;;30.59;52.43
60725;BME280;59881;36.722;-4.462;2022-07-22T12:16:33;100732.19;;;28.79;52.27
60725;BME280;59881;36.722;-4.462;2022-07-22T12:19:01;100996.22;;;30.23;54.19
60725;BME280;59881;36.722;-4.462;2022-07-22T12:21:30;100990.06;;;29.91;53.52
60725;BME280;59881;36.722;-4.462;2022-07-22T12:24:04;100585.66;;;27.08;55.13
60725;BME280;59881;36.722;-4.462;2022-07-22T12:29:18;100518.03;;;26.23;57.52
60725;BME280;59881;36.722;-4.462;2022-07-22T12:31:45;100816.66;;;28.37;57.11
60725;BME280;59881;36.722;-4.462;2022-07-22T12:34:12;100755.28;;;28.18;56.38
60725;BME280;59881;36.722;-4.462;2022-07-22T12:36:38;101009.91;;;29.91;57.50
60725;BME280;59881;36.722;-4.462;2022-07-22T12:39:17;100700.13;;;28.12;56.70
60725;BME280;59881;36.722;-4.462;2022-07-22T12:41:51;101028.59;;;30.31;55.88
60725;BME280;59881;36.722;-4.462;2022-07-22T12:44:22;100388.13;;;26.51;55.50
60725;BME280;59881;36.722;-4.462;2022-07-22T12:46:51;100409.97;;;26.56;55.79
60725;BME280;59881;36.722;-4.462;2022-07-22T12:49:22;100957.78;;;29.83;55.53
60725;BME280;59881;36.722;-4.462;2022-07-22T12:52:08;101019.72;;;29.92;55.20